Time;durP1;ratioP1;P1;durP2;ratioP2;P2;SDS_P1;SDS_P2;PMS_P1;PMS_P2;Temp;Humidity;BMP_temperature;BMP_pressure;BME280_temperature;BME280_humidity;BME280_pressure;Samples;Min_cycle;Max_cycle;Signal;HPM_P1;HPM_P2
2022/07/07 00:00:58;;;;;;;;;;;18.10;99.90;;;;;;5000200;28;19932;-67
2022/07/07 00:03:24;;;;;;;;;;;18.10;99.90;;;;;;5010784;28;19913;-65
2022/07/07 00:05:50;;;;;;;;;;;18.00;99.90;;;;;;5006068;28;19910;-67
2022/07/07 00:08:15;;;;;;;;;;;18.10;99.90;;;;;;5007525;28;20224;-66
2022/07/07 00:10:41;;;;;;;;;;;18.00;99.90;;;;;;5005854;28;19914;-67
2022/07/07 00:13:06;;;;;;;;;;;17.90;99.90;;;;;;5000851;28;19910;-67
2022/07/07 00:15:35;;;;;;;;;;;17.90;99.90;;;;;;5010287;28;19924;-66
2022/07/07 00:18:00;;;;;;;;;;;17.90;99.90;;;;;;5005210;28;20056;-66
2022/07/07 00:20:26;;;;;;;;;;;17.90;99.90;;;;;;4997823;28;20012;-67
2022/07/07 00:22:51;;;;;;;;;;;17.90;99.90;;;;;;5005089;28;19926;-67
2022/07/07 00:25:17;;;;;;;;;;;17.90;99.90;;;;;;5005378;28;19920;-66
2022/07/07 00:27:43;;;;;;;;;;;17.80;99.90;;;;;;5007863;28;20056;-67
2022/07/07 00:30:08;;;;;;;;;;;17.70;99.90;;;;;;4980141;28;19910;-66
2022/07/07 00:32:34;;;;;;;;;;;17.70;99.90;;;;;;5007467;28;19960;-66
2022/07/07 00:35:00;;;;;;;;;;;17.50;99.90;;;;;;5013930;28;19913;-67
2022/07/07 00:37:28;;;;;;;;;;;17.50;99.90;;;;;;5000894;28;19917;-66
2022/07/07 00:39:53;;;;;;;;;;;17.50;99.90;;;;;;5008271;28;19913;-67
2022/07/07 00:42:19;;;;;;;;;;;17.50;99.90;;;;;;5008243;28;19914;-66
2022/07/07 00:44:45;;;;;;;;;;;17.50;99.90;;;;;;5009409;28;19909;-67
2022/07/07 00:47:13;;;;;;;;;;;17.60;99.90;;;;;;5006235;28;20040;-67
2022/07/07 00:49:41;;;;;;;;;;;17.70;99.90;;;;;;5009047;28;19914;-67
2022/07/07 00:52:08;;;;;;;;;;;17.70;99.90;;;;;;5012538;28;20242;-66
2022/07/07 00:54:33;;;;;;;;;;;17.70;99.90;;;;;;5008127;28;19976;-67
2022/07/07 00:56:59;;;;;;;;;;;17.70;99.90;;;;;;4999135;28;20012;-66
2022/07/07 00:59:25;;;;;;;;;;;17.70;99.90;;;;;;5007504;28;20548;-67
2022/07/07 01:01:50;;;;;;;;;;;17.60;99.90;;;;;;5013142;28;19909;-67
2022/07/07 01:04:17;;;;;;;;;;;17.70;99.90;;;;;;5004890;28;19917;-66
2022/07/07 01:06:42;;;;;;;;;;;17.70;99.90;;;;;;5009444;28;19914;-67
2022/07/07 01:09:08;;;;;;;;;;;17.80;99.90;;;;;;5007476;28;19920;-66
2022/07/07 01:11:44;;;;;;;;;;;17.80;99.90;;;;;;5007847;28;19932;-67
2022/07/07 01:14:10;;;;;;;;;;;17.80;99.90;;;;;;5011547;28;19917;-67
2022/07/07 01:16:35;;;;;;;;;;;17.80;99.90;;;;;;5005861;28;19924;-66
2022/07/07 01:19:01;;;;;;;;;;;17.70;99.90;;;;;;5007723;28;19988;-66
2022/07/07 01:21:28;;;;;;;;;;;17.80;99.90;;;;;;5007372;28;19914;-67
2022/07/07 01:23:55;;;;;;;;;;;17.80;99.90;;;;;;5002769;28;20102;-67
2022/07/07 01:26:21;;;;;;;;;;;17.80;99.90;;;;;;4987701;28;20291;-66
2022/07/07 01:28:47;;;;;;;;;;;17.70;99.90;;;;;;5006363;28;19964;-68
2022/07/07 01:31:13;;;;;;;;;;;17.80;99.90;;;;;;5003024;28;19922;-66
2022/07/07 01:33:39;;;;;;;;;;;17.80;99.90;;;;;;5007627;28;19917;-66
2022/07/07 01:36:04;;;;;;;;;;;17.80;99.90;;;;;;5013420;28;19914;-68
2022/07/07 01:38:30;;;;;;;;;;;17.80;99.90;;;;;;5008395;28;19952;-67
2022/07/07 01:40:56;;;;;;;;;;;17.80;99.90;;;;;;5005383;28;20227;-67
2022/07/07 01:43:21;;;;;;;;;;;18.00;99.90;;;;;;5009197;28;20279;-66
2022/07/07 01:45:47;;;;;;;;;;;17.80;99.90;;;;;;5005780;28;21662;-67
2022/07/07 01:48:12;;;;;;;;;;;17.90;99.90;;;;;;5002568;28;19957;-68
2022/07/07 01:50:38;;;;;;;;;;;17.80;99.90;;;;;;5006605;28;20364;-67
2022/07/07 01:53:03;;;;;;;;;;;17.80;99.90;;;;;;5010703;28;19926;-67
2022/07/07 01:55:29;;;;;;;;;;;17.80;99.90;;;;;;5005683;28;19941;-67
2022/07/07 01:57:54;;;;;;;;;;;17.80;99.90;;;;;;5009671;28;19914;-65
2022/07/07 02:00:20;;;;;;;;;;;17.90;99.90;;;;;;5002377;28;19936;-66
2022/07/07 02:02:46;;;;;;;;;;;17.90;99.90;;;;;;5005266;28;20375;-67
2022/07/07 02:05:11;;;;;;;;;;;17.90;99.90;;;;;;5006084;28;19936;-67
2022/07/07 02:07:37;;;;;;;;;;;17.80;99.90;;;;;;4998014;28;19929;-67
2022/07/07 02:10:03;;;;;;;;;;;17.80;99.90;;;;;;5001905;28;20008;-66
2022/07/07 02:12:29;;;;;;;;;;;17.80;99.90;;;;;;5007550;28;19932;-67
2022/07/07 02:14:57;;;;;;;;;;;17.70;99.90;;;;;;5006265;28;19917;-66
2022/07/07 02:17:23;;;;;;;;;;;17.60;99.90;;;;;;5000900;28;20303;-66
2022/07/07 02:19:48;;;;;;;;;;;17.50;99.90;;;;;;5007351;28;19921;-68
2022/07/07 02:22:14;;;;;;;;;;;17.50;99.90;;;;;;5008074;28;19945;-66
2022/07/07 02:24:39;;;;;;;;;;;17.50;99.90;;;;;;5003778;28;20382;-67
2022/07/07 02:27:05;;;;;;;;;;;17.40;99.90;;;;;;5004630;28;19913;-67
2022/07/07 02:29:31;;;;;;;;;;;17.40;99.90;;;;;;4997685;28;20332;-67
2022/07/07 02:31:56;;;;;;;;;;;17.40;99.90;;;;;;5006076;28;19921;-67
2022/07/07 02:34:22;;;;;;;;;;;17.40;99.90;;;;;;5002795;28;20383;-66
2022/07/07 02:36:48;;;;;;;;;;;17.40;99.90;;;;;;5004512;28;19917;-66
2022/07/07 02:39:13;;;;;;;;;;;17.40;99.90;;;;;;5000255;28;19921;-66
2022/07/07 02:41:39;;;;;;;;;;;17.60;99.90;;;;;;5007458;28;19967;-67
2022/07/07 02:44:05;;;;;;;;;;;17.50;99.90;;;;;;5004193;28;20008;-67
2022/07/07 02:46:30;;;;;;;;;;;17.60;99.90;;;;;;5003683;28;19914;-67
2022/07/07 02:48:56;;;;;;;;;;;17.70;99.90;;;;;;5007090;28;19964;-67
2022/07/07 02:51:21;;;;;;;;;;;17.80;99.90;;;;;;5010133;28;19928;-67
2022/07/07 02:53:47;;;;;;;;;;;17.80;99.90;;;;;;5002766;28;19917;-66
2022/07/07 02:56:13;;;;;;;;;;;17.80;99.90;;;;;;5009912;28;19917;-67
2022/07/07 02:58:38;;;;;;;;;;;17.80;99.90;;;;;;5002470;28;19914;-66
2022/07/07 03:01:04;;;;;;;;;;;18.00;99.90;;;;;;4993363;28;19917;-66
2022/07/07 03:03:30;;;;;;;;;;;18.00;99.90;;;;;;5008625;28;20387;-66
2022/07/07 03:05:56;;;;;;;;;;;18.10;99.90;;;;;;5008749;28;19995;-66
2022/07/07 03:08:21;;;;;;;;;;;18.20;99.90;;;;;;5008570;28;19913;-68
2022/07/07 03:10:47;;;;;;;;;;;18.20;99.90;;;;;;5006308;28;19913;-67
2022/07/07 03:13:12;;;;;;;;;;;18.00;99.90;;;;;;5002508;28;19917;-66
2022/07/07 03:15:38;;;;;;;;;;;18.00;99.90;;;;;;5005676;28;20010;-67
2022/07/07 03:18:03;;;;;;;;;;;18.00;99.90;;;;;;4993732;28;20319;-67
2022/07/07 03:20:29;;;;;;;;;;;18.10;99.90;;;;;;5012728;28;19913;-67
2022/07/07 03:22:55;;;;;;;;;;;18.10;99.90;;;;;;5005641;28;19928;-67
2022/07/07 03:25:20;;;;;;;;;;;18.00;99.90;;;;;;5002790;28;20009;-68
2022/07/07 03:27:46;;;;;;;;;;;18.00;99.90;;;;;;4987740;28;20452;-67
2022/07/07 03:30:12;;;;;;;;;;;18.10;99.90;;;;;;5001317;28;19917;-66
2022/07/07 03:32:37;;;;;;;;;;;18.10;99.90;;;;;;5007143;28;19918;-67
2022/07/07 03:35:03;;;;;;;;;;;18.00;99.90;;;;;;5010615;28;19917;-66
2022/07/07 03:37:29;;;;;;;;;;;18.00;99.90;;;;;;5007203;28;20338;-66
2022/07/07 03:39:54;;;;;;;;;;;18.10;99.90;;;;;;5009786;28;19932;-67
2022/07/07 03:42:20;;;;;;;;;;;18.10;99.90;;;;;;4993812;28;19976;-67
2022/07/07 03:44:46;;;;;;;;;;;18.00;99.90;;;;;;5001714;28;19969;-66
2022/07/07 03:47:12;;;;;;;;;;;18.00;99.90;;;;;;5002046;28;19991;-66
2022/07/07 03:49:38;;;;;;;;;;;18.00;99.90;;;;;;5000401;28;19960;-67
2022/07/07 03:52:04;;;;;;;;;;;18.10;99.90;;;;;;5003476;28;19917;-67
2022/07/07 03:54:29;;;;;;;;;;;18.00;99.90;;;;;;5012028;28;20463;-66
2022/07/07 03:56:55;;;;;;;;;;;18.00;99.90;;;;;;5005756;28;20001;-68
2022/07/07 03:59:20;;;;;;;;;;;18.00;99.90;;;;;;4997925;28;19948;-67
2022/07/07 04:01:46;;;;;;;;;;;18.00;99.90;;;;;;5006263;28;19959;-67
2022/07/07 04:04:12;;;;;;;;;;;18.10;99.90;;;;;;5010190;28;20394;-67
2022/07/07 04:06:37;;;;;;;;;;;18.00;99.90;;;;;;4991151;28;19921;-67
2022/07/07 04:09:03;;;;;;;;;;;18.10;99.90;;;;;;5009964;28;20272;-66
2022/07/07 04:11:28;;;;;;;;;;;18.10;99.90;;;;;;5012106;28;19924;-66
2022/07/07 04:13:54;;;;;;;;;;;18.20;99.90;;;;;;5008764;28;19917;-68
2022/07/07 04:16:20;;;;;;;;;;;18.20;99.90;;;;;;5018701;28;19913;-67
2022/07/07 04:18:45;;;;;;;;;;;18.20;99.90;;;;;;4999022;28;19921;-66
2022/07/07 04:21:11;;;;;;;;;;;18.30;99.90;;;;;;5017535;28;19935;-67
2022/07/07 04:23:36;;;;;;;;;;;18.30;99.90;;;;;;5005305;28;20017;-66
2022/07/07 04:26:02;;;;;;;;;;;18.30;99.90;;;;;;5000924;28;19921;-67
2022/07/07 04:28:28;;;;;;;;;;;18.20;99.90;;;;;;5011278;28;19917;-66
2022/07/07 04:30:54;;;;;;;;;;;18.20;99.90;;;;;;5013746;28;19919;-66
2022/07/07 04:33:19;;;;;;;;;;;18.20;99.90;;;;;;5004067;28;19926;-66
2022/07/07 04:35:45;;;;;;;;;;;18.20;99.90;;;;;;5016485;28;19918;-67
2022/07/07 04:38:10;;;;;;;;;;;18.10;99.90;;;;;;5010580;28;19918;-68
2022/07/07 04:40:36;;;;;;;;;;;18.10;99.90;;;;;;5013304;28;20023;-66
2022/07/07 04:43:01;;;;;;;;;;;18.10;99.90;;;;;;5010095;28;19936;-66
2022/07/07 04:45:27;;;;;;;;;;;18.10;99.90;;;;;;5000900;28;19967;-66
2022/07/07 04:47:53;;;;;;;;;;;18.10;99.90;;;;;;4997375;28;19921;-66
2022/07/07 04:50:18;;;;;;;;;;;18.00;99.90;;;;;;4993324;28;19922;-66
2022/07/07 04:52:44;;;;;;;;;;;18.10;99.90;;;;;;5018006;28;19917;-67
2022/07/07 04:55:09;;;;;;;;;;;18.10;99.90;;;;;;5011370;28;19917;-66
2022/07/07 04:57:35;;;;;;;;;;;18.00;99.90;;;;;;4991865;28;20363;-66
2022/07/07 05:00:01;;;;;;;;;;;18.10;99.90;;;;;;5008737;28;19913;-67
2022/07/07 05:02:26;;;;;;;;;;;18.00;99.90;;;;;;5014370;28;19917;-66
2022/07/07 05:04:56;;;;;;;;;;;18.00;99.90;;;;;;5009211;28;19925;-68
2022/07/07 05:07:22;;;;;;;;;;;17.90;99.90;;;;;;5008792;28;20287;-67
2022/07/07 05:09:47;;;;;;;;;;;18.00;99.90;;;;;;5009059;28;19921;-67
2022/07/07 05:12:14;;;;;;;;;;;18.00;99.90;;;;;;5009904;28;20004;-67
2022/07/07 05:14:40;;;;;;;;;;;18.00;99.90;;;;;;4989662;28;20052;-67
2022/07/07 05:17:05;;;;;;;;;;;17.90;99.90;;;;;;5012943;28;20166;-68
2022/07/07 05:19:31;;;;;;;;;;;18.00;99.90;;;;;;5009220;28;20275;-67
2022/07/07 05:21:56;;;;;;;;;;;18.10;99.90;;;;;;5010646;28;19914;-66
2022/07/07 05:24:22;;;;;;;;;;;18.00;99.90;;;;;;5008408;28;19924;-67
2022/07/07 05:26:48;;;;;;;;;;;18.10;99.90;;;;;;5005443;28;20005;-67
2022/07/07 05:29:14;;;;;;;;;;;18.00;99.90;;;;;;5007962;28;19913;-66
2022/07/07 05:31:39;;;;;;;;;;;18.00;99.90;;;;;;4992656;28;20402;-67
2022/07/07 05:34:05;;;;;;;;;;;18.00;99.90;;;;;;5010628;28;19917;-67
2022/07/07 05:36:31;;;;;;;;;;;18.10;99.90;;;;;;5010681;28;20031;-67
2022/07/07 05:38:57;;;;;;;;;;;18.20;99.90;;;;;;5003806;28;20329;-67
2022/07/07 05:41:22;;;;;;;;;;;18.30;99.90;;;;;;5008621;28;20363;-67
2022/07/07 05:43:48;;;;;;;;;;;18.30;99.90;;;;;;5005802;28;19918;-67
2022/07/07 05:46:14;;;;;;;;;;;18.30;99.90;;;;;;5015250;28;19913;-67
2022/07/07 05:48:42;;;;;;;;;;;18.30;99.90;;;;;;4983508;28;19920;-68
2022/07/07 05:51:08;;;;;;;;;;;18.30;99.90;;;;;;5004445;28;20013;-67
2022/07/07 05:53:33;;;;;;;;;;;18.40;99.90;;;;;;5005708;28;20361;-67
2022/07/07 05:55:59;;;;;;;;;;;18.40;99.90;;;;;;5006113;28;19918;-67
2022/07/07 05:58:25;;;;;;;;;;;18.40;99.90;;;;;;5007849;28;20334;-66
2022/07/07 06:00:50;;;;;;;;;;;18.40;99.90;;;;;;4989884;28;19924;-67
2022/07/07 06:03:16;;;;;;;;;;;18.30;99.90;;;;;;5001849;28;19920;-68
2022/07/07 06:05:43;;;;;;;;;;;18.20;99.90;;;;;;5008068;28;19921;-67
2022/07/07 06:08:08;;;;;;;;;;;18.30;99.90;;;;;;5011071;28;19920;-67
2022/07/07 06:10:34;;;;;;;;;;;18.40;99.90;;;;;;5004529;28;19921;-67
2022/07/07 06:13:00;;;;;;;;;;;18.40;99.90;;;;;;5008651;28;19925;-67
2022/07/07 06:15:26;;;;;;;;;;;18.50;99.90;;;;;;5010590;28;19918;-67
2022/07/07 06:17:51;;;;;;;;;;;18.60;99.90;;;;;;5007591;28;19914;-67
2022/07/07 06:20:17;;;;;;;;;;;18.50;99.90;;;;;;5008076;28;19949;-66
2022/07/07 06:22:42;;;;;;;;;;;18.40;99.90;;;;;;5009739;28;20339;-67
2022/07/07 06:25:08;;;;;;;;;;;18.40;99.90;;;;;;5004763;28;19922;-68
2022/07/07 06:27:35;;;;;;;;;;;18.30;99.90;;;;;;5004844;28;19951;-67
2022/07/07 06:30:00;;;;;;;;;;;18.40;99.90;;;;;;5007295;28;19925;-67
2022/07/07 06:32:26;;;;;;;;;;;18.50;99.90;;;;;;4998834;28;20379;-67
2022/07/07 06:34:54;;;;;;;;;;;18.40;99.90;;;;;;5004633;28;19947;-66
2022/07/07 06:37:20;;;;;;;;;;;18.40;99.90;;;;;;5003926;28;20348;-67
2022/07/07 06:39:45;;;;;;;;;;;18.50;99.90;;;;;;5006894;28;19992;-67
2022/07/07 06:42:11;;;;;;;;;;;18.70;99.90;;;;;;5005196;28;19924;-66
2022/07/07 06:44:37;;;;;;;;;;;18.80;99.90;;;;;;5005494;28;19933;-67
2022/07/07 06:47:02;;;;;;;;;;;18.90;99.90;;;;;;5006386;28;19914;-66
2022/07/07 06:49:28;;;;;;;;;;;18.80;99.90;;;;;;5004121;28;19914;-67
2022/07/07 06:51:54;;;;;;;;;;;18.80;99.90;;;;;;5000751;28;20308;-67
2022/07/07 06:54:20;;;;;;;;;;;18.90;99.90;;;;;;5006496;28;20012;-68
2022/07/07 06:56:45;;;;;;;;;;;19.00;99.90;;;;;;5009642;28;19917;-66
2022/07/07 06:59:11;;;;;;;;;;;18.90;99.90;;;;;;5001610;28;20016;-67
2022/07/07 07:01:37;;;;;;;;;;;19.00;99.90;;;;;;5005561;28;19944;-67
2022/07/07 07:04:02;;;;;;;;;;;19.00;99.90;;;;;;5005337;28;19947;-66
2022/07/07 07:06:28;;;;;;;;;;;19.00;99.90;;;;;;5006236;28;20007;-68
2022/07/07 07:08:54;;;;;;;;;;;18.90;99.90;;;;;;4991201;28;19910;-67
2022/07/07 07:11:20;;;;;;;;;;;18.70;99.90;;;;;;4993844;28;19918;-67
2022/07/07 07:13:47;;;;;;;;;;;18.60;99.90;;;;;;5001878;28;19925;-68
2022/07/07 07:16:14;;;;;;;;;;;18.60;99.90;;;;;;5004291;28;19913;-68
2022/07/07 07:18:39;;;;;;;;;;;18.50;99.90;;;;;;4975463;28;19941;-67
2022/07/07 07:21:05;;;;;;;;;;;18.40;99.90;;;;;;5013770;28;19921;-67
2022/07/07 07:23:30;;;;;;;;;;;18.40;99.90;;;;;;4999939;28;19929;-67
2022/07/07 07:25:57;;;;;;;;;;;18.40;99.90;;;;;;5004205;28;19917;-66
2022/07/07 07:28:24;;;;;;;;;;;18.30;99.90;;;;;;5002581;28;20305;-68
2022/07/07 07:30:49;;;;;;;;;;;18.20;99.90;;;;;;5010583;28;20001;-67
2022/07/07 07:33:15;;;;;;;;;;;18.20;99.90;;;;;;5008872;28;20034;-66
2022/07/07 07:35:40;;;;;;;;;;;18.30;99.90;;;;;;5004337;28;20058;-67
2022/07/07 07:38:06;;;;;;;;;;;18.30;99.90;;;;;;5010625;28;19960;-67
2022/07/07 07:40:35;;;;;;;;;;;18.30;99.90;;;;;;5008616;28;19914;-67
2022/07/07 07:43:01;;;;;;;;;;;18.20;99.90;;;;;;4994297;28;20364;-68
2022/07/07 07:45:26;;;;;;;;;;;18.30;99.90;;;;;;5012633;28;19932;-68
2022/07/07 07:47:52;;;;;;;;;;;18.30;99.90;;;;;;5007552;28;20354;-67
2022/07/07 07:50:19;;;;;;;;;;;18.30;99.90;;;;;;5013659;28;20372;-68
2022/07/07 07:52:46;;;;;;;;;;;18.20;99.90;;;;;;5019780;28;19917;-68
2022/07/07 07:55:12;;;;;;;;;;;18.10;99.90;;;;;;5006727;28;19917;-67
2022/07/07 07:57:38;;;;;;;;;;;17.90;99.90;;;;;;5004612;28;20173;-66
2022/07/07 08:00:05;;;;;;;;;;;18.00;99.90;;;;;;4989992;28;20459;-69
2022/07/07 08:02:30;;;;;;;;;;;18.00;99.90;;;;;;5003368;28;19913;-66
2022/07/07 08:04:56;;;;;;;;;;;18.10;99.90;;;;;;4992976;28;19921;-66
2022/07/07 08:07:21;;;;;;;;;;;18.30;99.90;;;;;;4975181;28;20340;-67
2022/07/07 08:09:47;;;;;;;;;;;18.40;99.90;;;;;;5008778;28;19914;-67
2022/07/07 08:12:12;;;;;;;;;;;18.50;99.90;;;;;;4991889;28;19917;-66
2022/07/07 08:14:38;;;;;;;;;;;18.60;99.90;;;;;;5001441;28;20412;-67
2022/07/07 08:17:04;;;;;;;;;;;18.70;99.90;;;;;;5008990;28;20080;-66
2022/07/07 08:19:29;;;;;;;;;;;18.60;99.90;;;;;;4984577;28;19921;-67
2022/07/07 08:21:55;;;;;;;;;;;18.60;99.90;;;;;;5004480;28;19929;-66
2022/07/07 08:24:21;;;;;;;;;;;18.70;99.90;;;;;;5001136;28;20041;-67
2022/07/07 08:26:47;;;;;;;;;;;18.90;99.90;;;;;;5004754;28;19913;-66
2022/07/07 08:29:13;;;;;;;;;;;19.00;99.90;;;;;;4989497;28;20418;-65
2022/07/07 08:31:39;;;;;;;;;;;19.00;99.90;;;;;;5004439;28;20000;-66
2022/07/07 08:34:05;;;;;;;;;;;19.00;99.90;;;;;;5012610;28;19918;-66
2022/07/07 08:36:30;;;;;;;;;;;19.00;99.90;;;;;;5010658;28;20381;-66
2022/07/07 08:38:56;;;;;;;;;;;19.00;99.90;;;;;;5002814;28;19921;-66
2022/07/07 08:41:22;;;;;;;;;;;18.90;99.90;;;;;;5010464;28;19920;-66
2022/07/07 08:43:48;;;;;;;;;;;18.90;99.90;;;;;;5013377;28;19921;-66
2022/07/07 08:46:13;;;;;;;;;;;18.90;99.90;;;;;;5014850;28;20331;-68
2022/07/07 08:48:39;;;;;;;;;;;18.70;99.90;;;;;;5012895;28;19913;-66
2022/07/07 08:51:05;;;;;;;;;;;18.50;99.90;;;;;;5006383;28;19913;-68
2022/07/07 08:53:35;;;;;;;;;;;18.40;99.90;;;;;;5013750;28;19945;-66
2022/07/07 08:56:04;;;;;;;;;;;18.30;99.90;;;;;;5010127;28;20092;-66
2022/07/07 08:58:30;;;;;;;;;;;18.20;99.90;;;;;;5012877;28;19989;-66
2022/07/07 09:00:56;;;;;;;;;;;18.10;99.90;;;;;;5005337;28;20328;-65
2022/07/07 09:03:21;;;;;;;;;;;18.10;99.90;;;;;;5001403;28;19956;-67
2022/07/07 09:05:48;;;;;;;;;;;18.20;99.90;;;;;;5011071;28;19968;-65
2022/07/07 09:08:18;;;;;;;;;;;18.40;99.90;;;;;;5008857;28;20294;-67
2022/07/07 09:10:44;;;;;;;;;;;18.30;99.90;;;;;;5005528;28;20029;-66
2022/07/07 09:13:27;;;;;;;;;;;18.20;99.90;;;;;;4995840;28;19921;-67
2022/07/07 09:15:54;;;;;;;;;;;18.00;99.90;;;;;;5006580;28;20330;-66
2022/07/07 09:18:35;;;;;;;;;;;17.90;99.90;;;;;;5000829;28;20263;-66
2022/07/07 09:21:02;;;;;;;;;;;17.90;99.90;;;;;;5009744;28;19971;-66
2022/07/07 09:23:28;;;;;;;;;;;17.90;99.90;;;;;;5008945;28;20284;-66
2022/07/07 09:25:54;;;;;;;;;;;17.90;99.90;;;;;;5012074;28;20371;-67
2022/07/07 09:28:20;;;;;;;;;;;17.90;99.90;;;;;;5013403;28;19914;-67
2022/07/07 09:30:46;;;;;;;;;;;18.00;99.90;;;;;;5008582;28;19914;-66
2022/07/07 09:33:13;;;;;;;;;;;18.20;99.90;;;;;;5009941;28;20350;-66
2022/07/07 09:38:25;;;;;;;;;;;18.40;99.90;;;;;;5010589;28;19960;-67
2022/07/07 09:40:51;;;;;;;;;;;18.40;99.90;;;;;;5004985;28;19998;-65
2022/07/07 09:43:17;;;;;;;;;;;18.40;99.90;;;;;;4996809;28;19921;-66
2022/07/07 09:45:46;;;;;;;;;;;18.40;99.90;;;;;;5003811;28;20000;-67
2022/07/07 09:48:12;;;;;;;;;;;18.60;99.90;;;;;;5010303;28;19967;-67
2022/07/07 09:50:38;;;;;;;;;;;18.60;99.90;;;;;;5009238;28;20445;-68
2022/07/07 09:53:07;;;;;;;;;;;18.80;99.90;;;;;;4994163;28;19925;-67
2022/07/07 09:55:33;;;;;;;;;;;18.90;99.90;;;;;;5011153;28;19939;-66
2022/07/07 09:57:59;;;;;;;;;;;19.10;99.90;;;;;;4973345;28;20356;-67
2022/07/07 10:00:24;;;;;;;;;;;19.40;99.90;;;;;;5008784;28;19968;-66
2022/07/07 10:02:51;;;;;;;;;;;19.30;99.90;;;;;;5011022;28;20252;-66
2022/07/07 10:05:17;;;;;;;;;;;19.30;99.90;;;;;;5005029;28;19913;-67
2022/07/07 10:07:45;;;;;;;;;;;19.30;99.90;;;;;;5010815;28;19971;-67
2022/07/07 10:10:12;;;;;;;;;;;19.00;99.90;;;;;;4999609;28;19917;-67
2022/07/07 10:12:42;;;;;;;;;;;18.80;99.90;;;;;;5003138;28;20321;-67
2022/07/07 10:15:11;;;;;;;;;;;18.80;99.90;;;;;;5005013;28;19917;-67
2022/07/07 10:17:37;;;;;;;;;;;18.90;99.90;;;;;;5011022;28;19909;-68
2022/07/07 10:20:03;;;;;;;;;;;18.90;99.90;;;;;;5011651;28;19918;-67
2022/07/07 10:22:29;;;;;;;;;;;18.60;99.90;;;;;;4985974;28;19929;-67
2022/07/07 10:24:55;;;;;;;;;;;18.60;99.90;;;;;;5004598;28;19956;-69
2022/07/07 10:27:21;;;;;;;;;;;19.00;99.90;;;;;;5009532;28;20023;-68
2022/07/07 10:29:49;;;;;;;;;;;19.20;99.90;;;;;;5007287;28;20071;-68
2022/07/07 10:32:16;;;;;;;;;;;19.40;99.90;;;;;;4999920;28;20402;-68
2022/07/07 10:34:47;;;;;;;;;;;19.50;99.90;;;;;;4995813;28;20271;-67
2022/07/07 10:37:13;;;;;;;;;;;19.80;99.90;;;;;;5011100;28;19910;-67
2022/07/07 10:39:46;;;;;;;;;;;19.80;99.90;;;;;;5009959;28;19913;-67
2022/07/07 10:42:14;;;;;;;;;;;19.60;99.90;;;;;;5010480;28;20290;-67
2022/07/07 10:44:42;;;;;;;;;;;19.30;99.90;;;;;;5006944;28;19913;-68
2022/07/07 10:47:10;;;;;;;;;;;19.10;99.90;;;;;;4997943;28;19913;-68
2022/07/07 10:49:38;;;;;;;;;;;19.00;99.90;;;;;;5005585;28;19920;-67
2022/07/07 10:52:11;;;;;;;;;;;18.80;99.90;;;;;;5003691;28;19923;-69
2022/07/07 10:54:38;;;;;;;;;;;18.80;99.90;;;;;;5007272;28;19964;-67
2022/07/07 10:57:05;;;;;;;;;;;18.70;99.90;;;;;;5006653;28;19910;-68
2022/07/07 10:59:50;;;;;;;;;;;18.90;99.90;;;;;;4998214;28;20342;-69
2022/07/07 11:02:16;;;;;;;;;;;19.20;99.90;;;;;;5001296;28;19949;-68
2022/07/07 11:04:42;;;;;;;;;;;19.70;99.90;;;;;;5026494;28;19971;-68
2022/07/07 11:07:11;;;;;;;;;;;19.70;99.90;;;;;;5004951;28;19987;-67
2022/07/07 11:09:59;;;;;;;;;;;19.70;99.90;;;;;;4998620;28;20024;-69
2022/07/07 11:12:36;;;;;;;;;;;19.70;99.90;;;;;;5007080;28;20298;-67
2022/07/07 11:15:14;;;;;;;;;;;19.80;99.90;;;;;;5005352;28;19993;-68
2022/07/07 11:18:00;;;;;;;;;;;19.90;99.90;;;;;;5004608;28;19917;-67
2022/07/07 11:20:29;;;;;;;;;;;20.10;99.90;;;;;;5005627;28;19921;-66
2022/07/07 11:23:15;;;;;;;;;;;19.90;99.90;;;;;;5010284;28;19925;-68
2022/07/07 11:25:41;;;;;;;;;;;19.90;99.90;;;;;;5003764;28;19913;-66
2022/07/07 11:28:08;;;;;;;;;;;19.80;99.90;;;;;;5009062;28;20399;-66
2022/07/07 11:30:35;;;;;;;;;;;19.80;99.90;;;;;;5010331;28;19909;-67
2022/07/07 11:33:01;;;;;;;;;;;19.80;99.90;;;;;;5005010;28;20019;-66
2022/07/07 11:35:31;;;;;;;;;;;19.90;99.90;;;;;;5009677;28;20067;-67
2022/07/07 11:37:58;;;;;;;;;;;19.60;99.90;;;;;;5007548;28;19924;-66
2022/07/07 11:40:24;;;;;;;;;;;19.60;99.90;;;;;;5000978;28;19925;-67
2022/07/07 11:42:50;;;;;;;;;;;19.90;99.90;;;;;;4983312;28;19921;-67
2022/07/07 11:45:20;;;;;;;;;;;20.00;99.90;;;;;;4990514;28;20001;-66
2022/07/07 11:47:46;;;;;;;;;;;20.10;99.90;;;;;;5008107;28;19927;-67
2022/07/07 11:50:12;;;;;;;;;;;20.10;99.90;;;;;;5007448;28;19967;-66
2022/07/07 11:52:37;;;;;;;;;;;20.40;99.90;;;;;;5006624;28;19964;-67
2022/07/07 11:55:04;;;;;;;;;;;20.50;99.90;;;;;;4989076;28;19918;-67
2022/07/07 11:57:31;;;;;;;;;;;20.50;99.90;;;;;;5009934;28;20063;-66
2022/07/07 12:00:10;;;;;;;;;;;20.40;99.90;;;;;;4997175;28;20051;-67
2022/07/07 12:02:36;;;;;;;;;;;20.60;99.90;;;;;;4991760;28;19921;-66
2022/07/07 12:05:02;;;;;;;;;;;20.80;99.80;;;;;;5000105;28;19914;-68
2022/07/07 12:07:28;;;;;;;;;;;20.80;99.90;;;;;;5001161;28;19964;-68
2022/07/07 12:09:54;;;;;;;;;;;20.80;99.50;;;;;;4995603;28;19909;-68
2022/07/07 12:12:19;;;;;;;;;;;20.90;99.00;;;;;;5007065;28;20439;-70
2022/07/07 12:14:45;;;;;;;;;;;21.10;98.70;;;;;;4993761;28;19918;-68
2022/07/07 12:17:11;;;;;;;;;;;21.10;98.60;;;;;;5012306;28;19913;-66
2022/07/07 12:19:49;;;;;;;;;;;21.20;97.50;;;;;;4995203;28;19921;-67
2022/07/07 12:22:34;;;;;;;;;;;21.10;97.60;;;;;;5012793;28;19922;-68
2022/07/07 12:25:04;;;;;;;;;;;21.10;97.70;;;;;;4995207;28;20074;-68
2022/07/07 12:27:30;;;;;;;;;;;21.20;96.70;;;;;;5008366;28;19957;-69
2022/07/07 12:30:00;;;;;;;;;;;21.10;97.60;;;;;;5007452;28;20044;-68
2022/07/07 12:32:26;;;;;;;;;;;20.90;97.60;;;;;;4982905;28;20260;-67
2022/07/07 12:34:51;;;;;;;;;;;20.90;98.80;;;;;;4992363;28;19917;-66
2022/07/07 12:37:17;;;;;;;;;;;21.20;98.00;;;;;;4999872;28;19918;-68
2022/07/07 12:39:43;;;;;;;;;;;21.80;96.10;;;;;;5011954;28;19920;-67
2022/07/07 12:42:09;;;;;;;;;;;22.10;95.30;;;;;;5006534;28;19913;-67
2022/07/07 12:44:35;;;;;;;;;;;22.20;94.20;;;;;;4989683;28;19914;-67
2022/07/07 12:47:01;;;;;;;;;;;22.40;93.70;;;;;;4999906;28;20017;-66
2022/07/07 12:49:27;;;;;;;;;;;22.30;94.10;;;;;;4993468;28;19926;-66
2022/07/07 12:51:55;;;;;;;;;;;21.90;94.70;;;;;;5007186;28;19922;-67
2022/07/07 12:54:27;;;;;;;;;;;21.80;95.20;;;;;;5002741;28;19921;-67
2022/07/07 12:56:57;;;;;;;;;;;22.00;95.50;;;;;;4996096;28;20060;-66
2022/07/07 12:59:23;;;;;;;;;;;22.30;94.70;;;;;;5002572;28;19917;-69
2022/07/07 13:01:53;;;;;;;;;;;22.90;92.80;;;;;;5009520;28;20356;-67
2022/07/07 13:04:19;;;;;;;;;;;23.30;91.50;;;;;;5002752;28;19913;-68
2022/07/07 13:06:49;;;;;;;;;;;23.00;91.80;;;;;;4992985;28;19913;-67
2022/07/07 13:09:15;;;;;;;;;;;23.00;91.50;;;;;;5008294;28;19925;-66
2022/07/07 13:11:41;;;;;;;;;;;23.20;91.50;;;;;;5006482;28;19920;-67
2022/07/07 13:14:07;;;;;;;;;;;23.10;92.10;;;;;;5004706;28;20508;-67
2022/07/07 13:16:33;;;;;;;;;;;22.90;91.90;;;;;;5021276;28;19939;-66
2022/07/07 13:18:59;;;;;;;;;;;22.50;92.10;;;;;;4989564;28;20000;-67
2022/07/07 13:21:25;;;;;;;;;;;22.50;92.40;;;;;;5012697;28;20228;-66
2022/07/07 13:23:50;;;;;;;;;;;22.50;93.10;;;;;;5007520;28;19921;-67
2022/07/07 13:26:16;;;;;;;;;;;22.50;92.60;;;;;;5009584;28;19917;-67
2022/07/07 13:28:42;;;;;;;;;;;22.10;93.50;;;;;;4993052;28;20347;-68
2022/07/07 13:31:07;;;;;;;;;;;21.80;94.30;;;;;;5010260;28;20390;-66
2022/07/07 13:33:33;;;;;;;;;;;21.90;94.10;;;;;;5008636;28;19961;-68
2022/07/07 13:35:59;;;;;;;;;;;21.90;94.80;;;;;;5000790;28;20351;-67
2022/07/07 13:38:24;;;;;;;;;;;21.90;93.80;;;;;;4992536;28;20411;-66
2022/07/07 13:40:51;;;;;;;;;;;21.80;93.80;;;;;;5012209;28;20360;-65
2022/07/07 13:43:17;;;;;;;;;;;21.90;94.20;;;;;;4999866;28;19948;-66
2022/07/07 13:45:43;;;;;;;;;;;22.00;93.30;;;;;;5009763;28;19944;-65
2022/07/07 13:48:09;;;;;;;;;;;22.00;93.50;;;;;;5011977;28;19928;-66
2022/07/07 13:50:34;;;;;;;;;;;22.30;93.00;;;;;;5010549;28;20303;-70
2022/07/07 13:53:00;;;;;;;;;;;22.70;92.80;;;;;;5010319;28;19918;-68
2022/07/07 13:55:25;;;;;;;;;;;22.90;92.00;;;;;;4989728;28;20438;-65
2022/07/07 13:57:51;;;;;;;;;;;22.80;92.30;;;;;;4989806;28;19922;-65
2022/07/07 14:00:17;;;;;;;;;;;22.90;92.20;;;;;;5007620;28;19960;-66
2022/07/07 14:02:45;;;;;;;;;;;22.80;91.80;;;;;;4990290;28;20398;-65
2022/07/07 14:05:14;;;;;;;;;;;22.70;91.80;;;;;;5006561;28;19937;-65
2022/07/07 14:07:40;;;;;;;;;;;22.50;92.20;;;;;;5012977;28;19913;-65
2022/07/07 14:10:07;;;;;;;;;;;22.50;92.30;;;;;;5012666;28;19910;-66
2022/07/07 14:12:33;;;;;;;;;;;22.60;92.20;;;;;;5007258;28;19922;-65
2022/07/07 14:14:58;;;;;;;;;;;22.70;92.50;;;;;;5011332;28;19920;-66